Time;durP1;ratioP1;P1;durP2;ratioP2;P2;SDS_P1;SDS_P2;PMS_P1;PMS_P2;Temp;Humidity;BMP_temperature;BMP_pressure;BME280_temperature;BME280_humidity;BME280_pressure;Samples;Min_cycle;Max_cycle;Signal;HPM_P1;HPM_P2
2022/05/04 00:00:10;;;;;;;9.27;5.57;;;12.60;99.90;;;;;;5090806;28;20056;-75
2022/05/04 00:02:37;;;;;;;8.48;5.40;;;12.70;99.90;;;;;;5091602;28;20114;-74
2022/05/04 00:05:03;;;;;;;7.13;4.85;;;12.60;99.90;;;;;;5090882;28;20089;-75
2022/05/04 00:07:29;;;;;;;9.63;5.82;;;12.70;99.90;;;;;;5091203;28;20028;-75
2022/05/04 00:09:57;;;;;;;8.65;5.68;;;12.70;99.90;;;;;;5091839;28;20423;-75
2022/05/04 00:12:23;;;;;;;8.30;5.15;;;12.70;99.90;;;;;;5091362;28;20433;-75
2022/05/04 00:14:49;;;;;;;6.57;4.85;;;12.70;99.90;;;;;;5091278;28;20129;-75
2022/05/04 00:17:14;;;;;;;11.95;5.28;;;12.60;99.90;;;;;;5091982;28;20079;-75
2022/05/04 00:19:40;;;;;;;8.20;4.88;;;12.60;99.90;;;;;;5091272;28;20031;-75
2022/05/04 00:22:05;;;;;;;7.18;5.25;;;12.60;99.90;;;;;;5090697;28;20058;-75
2022/05/04 00:24:31;;;;;;;8.70;4.82;;;12.60;99.90;;;;;;5092520;28;20398;-75
2022/05/04 00:26:57;;;;;;;6.78;4.97;;;12.50;99.90;;;;;;5090568;28;20081;-75
2022/05/04 00:29:22;;;;;;;8.32;5.18;;;12.50;99.90;;;;;;5091110;28;20036;-75
2022/05/04 00:31:48;;;;;;;8.68;5.13;;;12.50;99.90;;;;;;5091071;28;20048;-75
2022/05/04 00:34:14;;;;;;;7.30;4.90;;;12.40;99.90;;;;;;5090553;28;20028;-75
2022/05/04 00:36:39;;;;;;;7.68;5.20;;;12.40;99.90;;;;;;5092172;28;20461;-75
2022/05/04 00:39:05;;;;;;;11.27;5.22;;;12.30;99.90;;;;;;5091671;28;20024;-75
2022/05/04 00:41:30;;;;;;;8.40;5.20;;;12.30;99.90;;;;;;5092345;28;20397;-75
2022/05/04 00:43:56;;;;;;;5.95;4.95;;;12.30;99.90;;;;;;5091772;28;20047;-76
2022/05/04 00:46:22;;;;;;;7.20;4.38;;;12.30;99.90;;;;;;5090955;28;20081;-75
2022/05/04 00:48:48;;;;;;;11.20;4.68;;;12.40;99.90;;;;;;5090602;28;20036;-75
2022/05/04 00:51:14;;;;;;;7.50;5.00;;;12.30;99.90;;;;;;5090396;28;20028;-75
2022/05/04 00:53:41;;;;;;;8.10;5.03;;;12.30;99.90;;;;;;5095002;28;20424;-74
2022/05/04 00:56:11;;;;;;;7.40;4.95;;;12.20;99.90;;;;;;5093984;28;20028;-75
2022/05/04 00:58:57;;;;;;;6.93;4.85;;;12.10;99.90;;;;;;5094512;28;20051;-75
2022/05/04 01:01:30;;;;;;;11.45;4.97;;;12.10;99.90;;;;;;5094686;28;20055;-75
2022/05/04 01:03:57;;;;;;;8.23;4.60;;;12.10;99.90;;;;;;5094014;28;20111;-75
2022/05/04 01:06:24;;;;;;;8.05;4.88;;;12.10;99.90;;;;;;5094328;28;20032;-74
2022/05/04 01:08:53;;;;;;;5.57;4.65;;;12.10;99.90;;;;;;5094494;28;20032;-74
2022/05/04 01:11:19;;;;;;;8.60;4.53;;;12.10;99.90;;;;;;5093501;28;20060;-74
2022/05/04 01:14:09;;;;;;;6.18;4.68;;;12.10;99.90;;;;;;5095509;28;20025;-74
2022/05/04 01:22:32;;;;;;;5.82;4.45;;;12.00;99.90;;;;;;5211185;23;20107;-74
2022/05/04 01:24:57;;;;;;;7.20;4.05;;;11.90;99.90;;;;;;5034923;28;20033;-74
2022/05/04 01:27:26;;;;;;;10.07;4.63;;;12.00;99.90;;;;;;5035219;28;20037;-74
2022/05/04 01:29:51;;;;;;;5.30;4.15;;;12.00;99.90;;;;;;5034607;28;20025;-75
2022/05/04 01:32:17;;;;;;;6.25;4.60;;;11.90;99.90;;;;;;5035087;28;20101;-74
2022/05/04 01:34:43;;;;;;;8.00;4.20;;;11.90;99.90;;;;;;5016751;28;20026;-74
2022/05/04 01:37:08;;;;;;;6.38;4.13;;;11.90;99.90;;;;;;5017290;28;20076;-75
2022/05/04 01:39:34;;;;;;;7.72;4.55;;;11.90;99.90;;;;;;5017232;28;20028;-75
2022/05/04 01:42:03;;;;;;;5.57;4.07;;;11.90;99.90;;;;;;5033113;28;20022;-75
2022/05/04 01:44:29;;;;;;;8.70;4.47;;;11.80;99.90;;;;;;5017008;28;20032;-74
2022/05/04 01:46:54;;;;;;;5.50;4.20;;;11.70;99.90;;;;;;5016460;28;20055;-75
2022/05/04 01:49:20;;;;;;;5.55;4.35;;;11.70;99.90;;;;;;5016923;28;20029;-74
2022/05/04 01:51:46;;;;;;;7.13;4.53;;;11.70;99.90;;;;;;5016145;28;20029;-75
2022/05/04 01:54:11;;;;;;;8.35;4.70;;;11.70;99.90;;;;;;5034732;28;20029;-74
2022/05/04 01:56:37;;;;;;;6.30;4.85;;;11.70;99.90;;;;;;5034285;28;20029;-76
2022/05/04 01:59:03;;;;;;;7.50;4.47;;;11.70;99.90;;;;;;5016868;28;20032;-75
2022/05/04 02:01:29;;;;;;;6.55;4.18;;;11.60;99.90;;;;;;5034617;28;20022;-74
2022/05/04 02:03:55;;;;;;;10.90;4.50;;;11.60;99.90;;;;;;5015139;28;20079;-75
2022/05/04 02:06:20;;;;;;;6.85;4.30;;;11.60;99.90;;;;;;5016440;28;20033;-74
2022/05/04 02:08:46;;;;;;;8.32;4.38;;;11.60;99.90;;;;;;5016161;28;20485;-74
2022/05/04 02:11:12;;;;;;;7.28;4.25;;;11.60;99.90;;;;;;5016237;28;20029;-75
2022/05/04 02:13:38;;;;;;;6.97;4.25;;;11.60;99.90;;;;;;5015864;28;20060;-76
2022/05/04 02:16:05;;;;;;;10.50;5.00;;;11.60;99.90;;;;;;5016417;28;20029;-75
2022/05/04 02:18:34;;;;;;;6.40;4.15;;;11.60;99.90;;;;;;5016373;28;20075;-74
2022/05/04 02:21:00;;;;;;;6.15;4.22;;;11.60;99.90;;;;;;5033416;28;20064;-74
2022/05/04 02:23:26;;;;;;;5.90;4.40;;;11.50;99.90;;;;;;5016420;28;20025;-75
2022/05/04 02:25:51;;;;;;;6.25;4.25;;;11.50;99.90;;;;;;5033450;28;20021;-75
2022/05/04 02:28:18;;;;;;;7.10;4.25;;;11.50;99.90;;;;;;5034083;28;20029;-74
2022/05/04 02:30:44;;;;;;;5.50;4.30;;;11.50;99.90;;;;;;5033387;28;20021;-74
2022/05/04 02:33:10;;;;;;;7.72;4.50;;;11.50;99.90;;;;;;5033983;28;20112;-74
2022/05/04 02:38:21;;;;;;;8.50;4.55;;;11.40;99.90;;;;;;5033867;28;20036;-74
2022/05/04 02:40:47;;;;;;;7.95;4.75;;;11.40;99.90;;;;;;5033352;28;20056;-75
2022/05/04 02:43:13;;;;;;;7.80;4.35;;;11.40;99.90;;;;;;5016075;28;20454;-75
2022/05/04 02:45:40;;;;;;;7.97;4.20;;;11.40;99.90;;;;;;5033668;28;20077;-74
2022/05/04 02:48:06;;;;;;;7.25;4.03;;;11.40;99.90;;;;;;5032345;28;20037;-75
2022/05/04 02:50:32;;;;;;;7.28;3.80;;;11.40;99.90;;;;;;5033556;28;20076;-74
2022/05/04 02:52:58;;;;;;;7.22;4.32;;;11.50;99.90;;;;;;5015229;28;20182;-74
2022/05/04 02:55:23;;;;;;;5.25;4.03;;;11.50;99.90;;;;;;5015724;28;20040;-75
2022/05/04 02:57:49;;;;;;;5.93;4.32;;;11.50;99.90;;;;;;5032911;28;20037;-74
2022/05/04 03:00:15;;;;;;;7.72;3.80;;;11.50;99.90;;;;;;5033442;28;20409;-74
2022/05/04 03:02:41;;;;;;;8.30;4.10;;;11.50;99.90;;;;;;5015513;28;20037;-76
2022/05/04 03:05:08;;;;;;;5.93;4.20;;;11.50;99.90;;;;;;5033267;28;20029;-75
2022/05/04 03:07:34;;;;;;;5.13;4.03;;;11.50;99.90;;;;;;5015480;28;20112;-74
2022/05/04 03:09:59;;;;;;;6.85;4.18;;;11.60;99.90;;;;;;5014978;28;20064;-75
2022/05/04 03:12:26;;;;;;;6.80;4.45;;;11.60;99.90;;;;;;5033219;28;20029;-75
2022/05/04 03:14:52;;;;;;;6.10;4.25;;;11.60;99.90;;;;;;5032358;28;20030;-75
2022/05/04 03:17:18;;;;;;;5.75;4.10;;;11.60;99.90;;;;;;5015247;28;20033;-74
2022/05/04 03:19:45;;;;;;;5.88;4.13;;;11.60;99.90;;;;;;5032491;28;20112;-75
2022/05/04 03:22:11;;;;;;;6.07;4.32;;;11.50;99.90;;;;;;5027970;28;20058;-74
2022/05/04 03:24:38;;;;;;;5.93;4.15;;;11.50;99.90;;;;;;5028457;28;20029;-74
2022/05/04 03:27:04;;;;;;;9.90;4.05;;;11.40;99.90;;;;;;5012575;28;20029;-75
2022/05/04 03:29:30;;;;;;;8.45;4.20;;;11.40;99.90;;;;;;5013481;28;20484;-74
2022/05/04 03:31:56;;;;;;;6.28;4.38;;;11.50;99.90;;;;;;5027996;28;20030;-74
2022/05/04 03:34:21;;;;;;;9.82;4.82;;;11.50;99.90;;;;;;5012007;28;20072;-74
2022/05/04 03:36:47;;;;;;;6.38;4.57;;;11.40;99.90;;;;;;5012285;28;20532;-74
2022/05/04 03:39:13;;;;;;;8.70;4.68;;;11.40;99.90;;;;;;5028178;28;20022;-74
2022/05/04 03:41:39;;;;;;;6.22;4.43;;;11.50;99.90;;;;;;5028243;28;20030;-74
2022/05/04 03:44:05;;;;;;;7.93;4.78;;;11.50;99.90;;;;;;5011119;28;20025;-74
2022/05/04 03:46:48;;;;;;;7.38;4.60;;;11.60;99.90;;;;;;5012815;28;20041;-75
2022/05/04 03:49:15;;;;;;;7.90;4.70;;;11.50;99.90;;;;;;5011898;28;20181;-75
2022/05/04 03:51:41;;;;;;;6.75;4.70;;;11.50;99.90;;;;;;5013076;28;20371;-74
2022/05/04 03:54:09;;;;;;;7.72;5.03;;;11.60;99.90;;;;;;5012461;28;20026;-74
2022/05/04 03:56:35;;;;;;;8.05;5.05;;;11.60;99.90;;;;;;5011577;28;20030;-74
2022/05/04 03:59:03;;;;;;;10.50;5.18;;;11.60;99.90;;;;;;5011072;28;20129;-74
2022/05/04 04:01:28;;;;;;;6.68;4.90;;;11.60;99.90;;;;;;5028281;28;20026;-75
2022/05/04 04:03:54;;;;;;;7.60;5.25;;;11.60;99.90;;;;;;5012530;28;20022;-74
2022/05/04 04:06:20;;;;;;;9.10;5.38;;;11.60;99.90;;;;;;5011162;28;20068;-75
2022/05/04 04:08:46;;;;;;;10.30;5.25;;;11.60;99.90;;;;;;5011026;28;20026;-75
2022/05/04 04:11:12;;;;;;;7.45;4.78;;;11.60;99.90;;;;;;5011197;28;20026;-74
2022/05/04 04:13:38;;;;;;;6.93;5.22;;;11.60;99.90;;;;;;5011432;28;20026;-75
2022/05/04 04:16:04;;;;;;;8.15;4.78;;;11.50;99.90;;;;;;5010989;28;20033;-75
2022/05/04 04:18:29;;;;;;;7.28;4.40;;;11.50;99.90;;;;;;5011477;28;20025;-75
2022/05/04 04:23:40;;;;;;;9.15;5.03;;;11.50;99.90;;;;;;5032288;28;20040;-75
2022/05/04 04:26:08;;;;;;;7.43;4.70;;;11.50;99.90;;;;;;5013864;28;20148;-75
2022/05/04 04:28:35;;;;;;;8.85;5.28;;;11.50;99.90;;;;;;5016808;28;20079;-74
2022/05/04 04:31:02;;;;;;;6.80;5.20;;;11.60;99.90;;;;;;5017853;28;20026;-75
2022/05/04 04:33:29;;;;;;;6.70;4.70;;;11.60;99.90;;;;;;5036132;28;20034;-74
2022/05/04 04:35:55;;;;;;;6.22;4.40;;;11.60;99.90;;;;;;5017837;28;20072;-75
2022/05/04 04:38:21;;;;;;;7.47;4.80;;;11.60;99.90;;;;;;5034712;28;20386;-74
2022/05/04 04:40:46;;;;;;;6.57;4.45;;;11.60;99.90;;;;;;5018365;28;20026;-75
2022/05/04 04:43:13;;;;;;;7.40;4.80;;;11.60;99.90;;;;;;5018504;28;20116;-75
2022/05/04 04:45:40;;;;;;;6.72;4.88;;;11.60;99.90;;;;;;5035964;28;20029;-74
2022/05/04 04:48:05;;;;;;;6.10;4.40;;;11.60;99.90;;;;;;5035262;28;20107;-74
2022/05/04 04:50:31;;;;;;;8.13;4.70;;;11.70;99.90;;;;;;5018040;28;20065;-73
2022/05/04 04:52:56;;;;;;;6.53;4.90;;;11.70;99.90;;;;;;5035300;28;20025;-74
2022/05/04 04:55:22;;;;;;;7.55;4.90;;;11.70;99.90;;;;;;5017693;28;20462;-75
2022/05/04 04:57:48;;;;;;;7.13;4.43;;;11.80;99.90;;;;;;5034951;28;20034;-76
2022/05/04 05:00:14;;;;;;;7.28;4.93;;;11.80;99.90;;;;;;5035840;28;20040;-74
2022/05/04 05:02:40;;;;;;;6.55;4.90;;;11.80;99.90;;;;;;5018039;28;20116;-74
2022/05/04 05:05:07;;;;;;;8.32;4.82;;;11.90;99.90;;;;;;5017272;28;20029;-74
2022/05/04 05:07:33;;;;;;;6.47;5.15;;;11.90;99.90;;;;;;5034132;28;20037;-74
2022/05/04 05:09:58;;;;;;;6.72;5.03;;;11.90;99.90;;;;;;5017123;28;20133;-75
2022/05/04 05:12:24;;;;;;;7.90;4.85;;;11.90;99.90;;;;;;5017497;28;20416;-74
2022/05/04 05:17:35;;;;;;;7.68;4.93;;;12.00;99.90;;;;;;5035097;28;20076;-74
2022/05/04 05:20:03;;;;;;;7.18;4.97;;;12.00;99.90;;;;;;5034744;28;20453;-74
2022/05/04 05:22:28;;;;;;;9.25;5.07;;;12.00;99.90;;;;;;5017118;28;20060;-74
2022/05/04 05:24:54;;;;;;;7.97;5.07;;;12.00;99.90;;;;;;5016629;28;20474;-75
2022/05/04 05:27:22;;;;;;;8.27;5.00;;;12.00;99.90;;;;;;5017597;28;20173;-74
2022/05/04 05:29:47;;;;;;;6.35;5.10;;;12.10;99.90;;;;;;5035090;28;20112;-74
2022/05/04 05:32:13;;;;;;;6.85;5.03;;;12.10;99.90;;;;;;5016500;28;20113;-74
2022/05/04 05:34:39;;;;;;;7.65;5.18;;;12.20;99.90;;;;;;5017260;28;20036;-75
2022/05/04 05:37:05;;;;;;;7.78;5.30;;;12.20;99.90;;;;;;5016698;28;20428;-75
2022/05/04 05:39:30;;;;;;;6.93;5.15;;;12.20;99.90;;;;;;5034275;28;20429;-74
2022/05/04 05:41:56;;;;;;;8.52;5.43;;;12.30;99.90;;;;;;5034047;28;20061;-75
2022/05/04 05:44:21;;;;;;;8.77;5.55;;;12.30;99.90;;;;;;5017111;28;20037;-75
2022/05/04 05:46:47;;;;;;;7.70;5.03;;;12.40;99.90;;;;;;5034911;28;20109;-74
2022/05/04 05:49:13;;;;;;;8.00;5.10;;;12.50;99.90;;;;;;5034241;28;20055;-75
2022/05/04 05:51:38;;;;;;;9.98;5.20;;;12.60;99.90;;;;;;5034413;28;20035;-74
2022/05/04 05:54:04;;;;;;;7.95;4.90;;;12.60;99.90;;;;;;5016372;28;20523;-75
2022/05/04 05:56:30;;;;;;;8.90;4.90;;;12.60;99.90;;;;;;5016528;28;20528;-74
2022/05/04 05:58:55;;;;;;;9.25;5.13;;;12.60;99.90;;;;;;5016261;28;20025;-75
2022/05/04 06:01:21;;;;;;;11.68;5.43;;;12.70;99.90;;;;;;5016753;28;20082;-74
2022/05/04 06:03:49;;;;;;;7.35;5.28;;;12.70;99.90;;;;;;5034408;28;20025;-74
2022/05/04 06:06:14;;;;;;;8.57;5.15;;;12.70;99.90;;;;;;5015994;28;20081;-74
2022/05/04 06:08:40;;;;;;;13.73;5.22;;;12.70;99.90;;;;;;5016596;28;20433;-75
2022/05/04 06:11:06;;;;;;;7.07;5.25;;;12.80;99.90;;;;;;5015859;28;20409;-74
2022/05/04 06:13:31;;;;;;;7.90;5.10;;;12.90;99.90;;;;;;5016246;28;20083;-74
2022/05/04 06:15:57;;;;;;;8.07;4.72;;;12.90;99.90;;;;;;5015648;28;20076;-75
2022/05/04 06:18:22;;;;;;;10.75;5.55;;;12.90;99.90;;;;;;5016527;28;20029;-74
2022/05/04 06:20:48;;;;;;;9.45;4.93;;;12.90;99.90;;;;;;5015944;28;20033;-74
2022/05/04 06:23:14;;;;;;;8.57;5.53;;;13.00;99.90;;;;;;5015751;28;20382;-75
2022/05/04 06:25:41;;;;;;;8.00;5.13;;;13.00;99.90;;;;;;5034177;28;20051;-74
2022/05/04 06:28:07;;;;;;;8.85;5.15;;;13.00;99.90;;;;;;5033344;28;20025;-75
2022/05/04 06:36:01;;;;;;;9.65;5.55;;;13.00;99.90;;;;;;5033322;28;20084;-74
2022/05/04 06:38:27;;;;;;;8.48;5.55;;;13.00;99.90;;;;;;5034034;28;20045;-74
2022/05/04 06:40:54;;;;;;;10.20;6.28;;;13.10;99.90;;;;;;5016059;28;20030;-74
2022/05/04 06:43:20;;;;;;;10.80;6.35;;;13.10;99.90;;;;;;5015935;28;20025;-74
2022/05/04 06:45:46;;;;;;;10.13;6.72;;;13.00;99.90;;;;;;5033378;28;20344;-74
2022/05/04 06:48:11;;;;;;;14.68;6.55;;;13.10;99.90;;;;;;5032744;28;20029;-74
2022/05/04 06:50:37;;;;;;;11.73;6.63;;;13.10;99.90;;;;;;5014584;28;20045;-74
2022/05/04 06:53:03;;;;;;;11.30;7.20;;;13.20;99.90;;;;;;5015302;28;20026;-74
2022/05/04 06:55:29;;;;;;;11.57;6.78;;;13.30;99.90;;;;;;5015827;28;20037;-74
2022/05/04 06:57:55;;;;;;;12.10;6.80;;;13.30;99.90;;;;;;5015875;28;20033;-76
2022/05/04 07:00:20;;;;;;;9.38;7.03;;;13.30;99.90;;;;;;5015796;28;20029;-74
2022/05/04 07:02:46;;;;;;;9.85;6.78;;;13.40;99.90;;;;;;5015713;28;20025;-74
2022/05/04 07:05:11;;;;;;;11.30;7.05;;;13.50;99.90;;;;;;5032762;28;20099;-74
2022/05/04 07:07:37;;;;;;;8.82;6.20;;;13.50;99.90;;;;;;5015530;28;20103;-74
2022/05/04 07:10:03;;;;;;;12.20;6.82;;;13.60;99.90;;;;;;5014950;28;20112;-74
2022/05/04 07:12:29;;;;;;;8.88;6.45;;;13.60;99.90;;;;;;5033362;28;20060;-74
2022/05/04 07:14:56;;;;;;;10.43;7.00;;;13.70;99.90;;;;;;5015527;28;20022;-74
2022/05/04 07:17:25;;;;;;;12.13;7.40;;;13.70;99.90;;;;;;5015363;28;20068;-74
2022/05/04 07:19:52;;;;;;;10.30;6.90;;;13.70;99.90;;;;;;5015365;28;20091;-74
2022/05/04 07:22:17;;;;;;;12.50;7.10;;;13.80;99.90;;;;;;5014662;28;20551;-74
2022/05/04 07:24:43;;;;;;;12.23;7.22;;;13.80;99.90;;;;;;5015352;28;20026;-74
2022/05/04 07:27:08;;;;;;;11.85;7.93;;;13.90;99.90;;;;;;5014694;28;20098;-74
2022/05/04 07:29:35;;;;;;;10.95;7.63;;;13.90;99.90;;;;;;5015247;28;20030;-74
2022/05/04 07:32:02;;;;;;;12.15;7.88;;;14.00;99.90;;;;;;5014632;28;20383;-74
2022/05/04 07:34:28;;;;;;;14.25;8.10;;;14.00;99.90;;;;;;5015274;28;20025;-73
2022/05/04 07:36:53;;;;;;;12.27;8.02;;;14.00;99.90;;;;;;5015088;28;20474;-74
2022/05/04 07:42:22;;;;;;;11.50;7.93;;;14.00;99.90;;;;;;5032364;28;20041;-74
2022/05/04 07:45:12;;;;;;;12.88;7.65;;;14.10;99.90;;;;;;5015235;28;20026;-74
2022/05/04 07:47:39;;;;;;;13.50;7.88;;;14.00;99.90;;;;;;5015197;28;20025;-74
2022/05/04 07:50:07;;;;;;;15.50;8.00;;;14.10;99.90;;;;;;5014322;28;20481;-73
2022/05/04 07:52:33;;;;;;;11.90;7.47;;;14.10;99.90;;;;;;5014597;28;20025;-74
2022/05/04 07:54:58;;;;;;;11.52;7.45;;;14.20;99.90;;;;;;5014308;28;20030;-76
2022/05/04 07:57:24;;;;;;;12.65;7.13;;;14.30;99.90;;;;;;5032245;28;20036;-74
2022/05/04 08:05:22;;;;;;;10.48;6.93;;;14.40;99.90;;;;;;5036171;28;20044;-73
2022/05/04 08:07:48;;;;;;;15.77;7.70;;;14.50;99.90;;;;;;5036224;28;20102;-74
2022/05/04 08:10:13;;;;;;;13.68;7.78;;;14.70;99.90;;;;;;5018265;28;20478;-74
2022/05/04 08:12:40;;;;;;;12.15;7.65;;;14.90;99.90;;;;;;5018963;28;20029;-74
2022/05/04 08:15:06;;;;;;;10.05;7.65;;;15.00;99.90;;;;;;5035614;28;20078;-74
2022/05/04 08:17:32;;;;;;;11.13;7.60;;;15.20;99.90;;;;;;5018720;28;20389;-73
2022/05/04 08:19:58;;;;;;;12.13;7.95;;;15.30;99.90;;;;;;5036146;28;20495;-74
2022/05/04 08:22:24;;;;;;;12.48;7.40;;;15.40;99.90;;;;;;5017797;28;20142;-74
2022/05/04 08:24:49;;;;;;;12.18;6.80;;;15.50;99.90;;;;;;5018585;28;20121;-73
2022/05/04 08:27:15;;;;;;;11.18;7.53;;;15.60;99.90;;;;;;5017681;28;20083;-73
2022/05/04 08:29:41;;;;;;;8.73;6.30;;;15.70;99.90;;;;;;5017897;28;20143;-73
2022/05/04 08:32:07;;;;;;;10.85;7.32;;;15.70;99.90;;;;;;5017848;28;20029;-73
2022/05/04 08:34:32;;;;;;;12.77;7.82;;;15.80;99.90;;;;;;5017692;28;20026;-73
2022/05/04 08:36:58;;;;;;;11.95;7.43;;;15.90;99.90;;;;;;5035621;28;20371;-73
2022/05/04 08:39:23;;;;;;;11.43;8.00;;;15.90;99.90;;;;;;5017743;28;20036;-73
2022/05/04 08:41:51;;;;;;;14.05;8.05;;;16.00;99.90;;;;;;5017988;28;20075;-73
2022/05/04 08:44:18;;;;;;;11.38;8.10;;;16.10;99.90;;;;;;5017575;28;20025;-73
2022/05/04 08:46:44;;;;;;;13.25;7.75;;;16.00;99.90;;;;;;5035576;28;20026;-73
2022/05/04 08:49:12;;;;;;;9.95;7.68;;;16.10;99.90;;;;;;5017568;28;20029;-74
2022/05/04 08:51:39;;;;;;;13.88;7.70;;;16.20;99.90;;;;;;5018121;28;20436;-74
2022/05/04 08:54:06;;;;;;;15.15;7.50;;;16.20;99.90;;;;;;5034947;28;20025;-74
2022/05/04 08:56:34;;;;;;;12.50;7.43;;;16.20;99.90;;;;;;5036144;28;20034;-73
2022/05/04 08:59:04;;;;;;;11.43;8.10;;;16.30;99.90;;;;;;5034279;28;20064;-73
2022/05/04 09:01:37;;;;;;;18.45;8.80;;;16.40;99.90;;;;;;5017859;28;20022;-73
2022/05/04 09:04:03;;;;;;;13.23;7.60;;;16.30;99.90;;;;;;5017016;28;20125;-75
2022/05/04 09:06:33;;;;;;;13.32;8.10;;;16.40;99.90;;;;;;5017606;28;20061;-73
2022/05/04 09:09:04;;;;;;;12.80;7.55;;;16.40;99.90;;;;;;5017762;28;20371;-73
2022/05/04 09:11:32;;;;;;;10.82;7.63;;;16.50;99.90;;;;;;5035858;28;20440;-73
2022/05/04 09:13:58;;;;;;;13.13;7.78;;;16.60;99.90;;;;;;5016956;28;20025;-73
2022/05/04 09:16:30;;;;;;;13.52;8.25;;;16.70;99.90;;;;;;5034544;28;20044;-73
2022/05/04 09:18:58;;;;;;;14.88;8.35;;;16.70;99.90;;;;;;5017612;28;20052;-73
2022/05/04 09:21:26;;;;;;;11.10;7.57;;;16.80;99.90;;;;;;5016476;28;20089;-73
2022/05/04 09:23:53;;;;;;;13.27;7.80;;;16.70;99.90;;;;;;5017300;28;20469;-73
2022/05/04 09:26:20;;;;;;;12.80;7.85;;;16.70;99.90;;;;;;5034214;28;20021;-73
2022/05/04 09:28:58;;;;;;;11.82;8.02;;;16.60;99.90;;;;;;5017368;28;20033;-73
2022/05/04 09:31:25;;;;;;;9.02;7.40;;;16.60;99.90;;;;;;5033200;28;20072;-73
2022/05/04 09:33:59;;;;;;;15.00;7.63;;;16.60;99.90;;;;;;5017198;28;20026;-73
2022/05/04 09:45:21;;;;;;;11.23;7.50;;;16.40;99.90;;;;;;5034602;28;20068;-73
2022/05/04 09:47:48;;;;;;;11.90;7.70;;;16.40;99.90;;;;;;5016996;28;20033;-73
2022/05/04 09:50:16;;;;;;;11.52;6.93;;;16.50;99.90;;;;;;5016087;28;20037;-74
2022/05/04 09:52:50;;;;;;;12.27;7.22;;;16.50;99.90;;;;;;5033568;28;20500;-73
2022/05/04 09:55:19;;;;;;;10.45;7.22;;;16.60;99.90;;;;;;5034202;28;20021;-73
2022/05/04 09:57:47;;;;;;;12.82;8.32;;;16.60;99.90;;;;;;5016814;28;20029;-73
2022/05/04 10:00:14;;;;;;;13.95;8.82;;;16.50;99.90;;;;;;5016367;28;20377;-74
2022/05/04 10:02:44;;;;;;;13.77;9.38;;;16.50;99.90;;;;;;5016836;28;20082;-73
2022/05/04 10:05:10;;;;;;;14.85;9.00;;;16.50;99.90;;;;;;5016182;28;20026;-74
2022/05/04 10:07:37;;;;;;;15.20;9.20;;;16.50;99.90;;;;;;5016504;28;20029;-73
2022/05/04 10:10:07;;;;;;;11.27;8.02;;;16.50;99.90;;;;;;5034301;28;20108;-73
2022/05/04 10:12:38;;;;;;;15.15;8.48;;;16.50;99.90;;;;;;5016691;28;20021;-74
2022/05/04 10:15:07;;;;;;;12.17;8.00;;;16.50;99.90;;;;;;5016568;28;20033;-74
2022/05/04 10:17:35;;;;;;;11.73;7.85;;;16.50;99.90;;;;;;5016467;28;20038;-74
2022/05/04 10:20:11;;;;;;;11.20;7.85;;;16.60;99.90;;;;;;5016406;28;20490;-74
2022/05/04 10:22:57;;;;;;;13.98;8.55;;;16.70;99.90;;;;;;5016313;28;20058;-73
2022/05/04 10:25:24;;;;;;;13.75;8.95;;;16.70;99.90;;;;;;5014787;28;20117;-73
2022/05/04 10:27:50;;;;;;;13.30;8.10;;;16.70;99.90;;;;;;5033927;28;20026;-74
2022/05/04 10:30:31;;;;;;;15.50;8.25;;;16.70;99.90;;;;;;5033492;28;20048;-74
2022/05/04 10:33:03;;;;;;;11.88;8.07;;;16.60;99.90;;;;;;5016417;28;20033;-73
2022/05/04 10:35:43;;;;;;;;;;;16.70;99.90;;;;;;5016071;28;20068;-74
2022/05/04 10:38:13;;;;;;;11.98;7.93;;;16.70;99.90;;;;;;5015796;28;19905;-74
2022/05/04 10:40:44;;;;;;;12.50;7.35;;;16.70;99.90;;;;;;5016106;28;20032;-73
2022/05/04 10:43:12;;;;;;;11.55;7.82;;;16.70;99.90;;;;;;5015520;28;20461;-74
2022/05/04 10:45:44;;;;;;;12.23;7.72;;;16.70;99.90;;;;;;5015666;28;20029;-73
2022/05/04 10:48:19;;;;;;;11.27;7.63;;;16.80;99.90;;;;;;5015292;28;20030;-74
2022/05/04 10:50:57;;;;;;;10.10;7.50;;;16.90;99.90;;;;;;5015902;28;20080;-73
2022/05/04 10:53:26;;;;;;;11.55;7.40;;;16.80;99.90;;;;;;5032664;28;20355;-73
2022/05/04 10:56:03;;;;;;;14.18;8.45;;;16.80;99.90;;;;;;5015778;28;20159;-73
2022/05/04 10:58:39;;;;;;;11.95;7.38;;;16.80;99.90;;;;;;5015144;28;20265;-74
2022/05/04 11:01:34;;;;;;;10.23;6.97;;;16.90;99.90;;;;;;5015661;28;20033;-74
2022/05/04 11:04:14;;;;;;;17.15;7.93;;;16.90;99.90;;;;;;5015844;28;20021;-73
2022/05/04 11:06:48;;;;;;;13.13;7.13;;;17.00;99.90;;;;;;5033235;28;20030;-75
2022/05/04 11:09:24;;;;;;;10.80;6.60;;;17.00;99.90;;;;;;5015028;28;20077;-74
2022/05/04 11:11:56;;;;;;;10.38;7.43;;;17.00;99.80;;;;;;5033313;28;20022;-73
2022/05/04 11:14:22;;;;;;;14.32;7.45;;;17.10;99.90;;;;;;5032627;28;20025;-74
2022/05/04 11:16:50;;;;;;;9.85;7.10;;;17.20;99.90;;;;;;5015558;28;20116;-74
2022/05/04 11:19:16;;;;;;;10.95;7.13;;;17.30;99.90;;;;;;5014801;28;20373;-74
2022/05/04 11:21:43;;;;;;;10.52;6.63;;;17.40;99.90;;;;;;5015022;28;20057;-73
2022/05/04 11:24:10;;;;;;;8.30;6.35;;;17.40;99.90;;;;;;5015310;28;20120;-73
2022/05/04 11:26:38;;;;;;;7.80;5.70;;;17.40;99.90;;;;;;5033244;28;20163;-73
2022/05/04 11:29:12;;;;;;;8.30;5.57;;;17.40;99.90;;;;;;5015166;28;20036;-73
2022/05/04 11:31:43;;;;;;;8.88;5.97;;;17.50;99.90;;;;;;5015323;28;20033;-74
2022/05/04 11:34:09;;;;;;;8.80;6.25;;;17.60;99.90;;;;;;5015289;28;20498;-73
2022/05/04 11:36:35;;;;;;;8.95;6.47;;;17.70;99.90;;;;;;5014121;28;20041;-74
2022/05/04 11:39:03;;;;;;;8.00;6.10;;;17.70;99.60;;;;;;5015074;28;20021;-74
2022/05/04 11:41:28;;;;;;;6.85;5.35;;;17.70;98.70;;;;;;5014430;28;20457;-74
2022/05/04 11:43:54;;;;;;;8.57;5.55;;;17.70;99.30;;;;;;5015136;28;20025;-74
2022/05/04 11:46:21;;;;;;;5.53;4.97;;;17.80;99.70;;;;;;5032276;28;20029;-74
2022/05/04 11:48:47;;;;;;;8.13;5.07;;;17.80;99.10;;;;;;5015129;28;20034;-73
2022/05/04 11:51:17;;;;;;;9.18;5.68;;;17.80;98.70;;;;;;5014133;28;20470;-75
2022/05/04 11:53:43;;;;;;;7.82;5.35;;;17.90;98.30;;;;;;5015005;28;20026;-73
2022/05/04 11:56:09;;;;;;;6.30;4.13;;;18.00;97.00;;;;;;5014314;28;20032;-73
2022/05/04 11:58:37;;;;;;;8.05;5.60;;;18.10;97.20;;;;;;5014264;28;20539;-73
2022/05/04 12:01:06;;;;;;;11.10;5.30;;;18.20;97.60;;;;;;5032651;28;20061;-73
2022/05/04 12:03:34;;;;;;;7.28;5.15;;;18.40;96.10;;;;;;5031968;28;20429;-74
2022/05/04 12:06:02;;;;;;;7.35;4.78;;;18.50;96.20;;;;;;5014845;28;20075;-74
2022/05/04 12:08:28;;;;;;;6.50;5.28;;;18.60;96.40;;;;;;5014227;28;20382;-74
2022/05/04 12:10:55;;;;;;;11.25;5.88;;;18.70;97.00;;;;;;5014750;28;20083;-74
2022/05/04 12:13:26;;;;;;;8.75;5.40;;;18.80;96.30;;;;;;5030758;28;20028;-74
2022/05/04 12:15:58;;;;;;;6.63;5.20;;;18.90;96.00;;;;;;5014784;28;20029;-74
2022/05/04 12:18:32;;;;;;;8.63;5.68;;;19.00;95.60;;;;;;5014204;28;20037;-73
2022/05/04 12:21:11;;;;;;;8.30;5.00;;;19.20;93.60;;;;;;5011106;28;20061;-73
2022/05/04 12:23:41;;;;;;;9.43;5.88;;;19.40;93.70;;;;;;5010941;28;20042;-74
2022/05/04 12:26:10;;;;;;;9.70;5.15;;;19.60;93.60;;;;;;5012608;28;20124;-73
2022/05/04 12:28:37;;;;;;;6.22;4.60;;;19.80;92.60;;;;;;5010800;28;20033;-74
2022/05/04 12:33:48;;;;;;;9.63;4.35;;;20.00;93.80;;;;;;5012648;28;20081;-74
2022/05/04 12:36:17;;;;;;;7.93;4.60;;;20.30;92.80;;;;;;5012554;28;20075;-74
2022/05/04 12:38:46;;;;;;;4.38;3.45;;;20.50;90.10;;;;;;5011271;28;20042;-73
2022/05/04 12:41:13;;;;;;;6.15;3.67;;;20.60;86.50;;;;;;5011200;28;20029;-73
2022/05/04 12:43:39;;;;;;;9.05;3.95;;;20.80;85.50;;;;;;5010657;28;20045;-73
2022/05/04 12:46:10;;;;;;;4.28;3.78;;;20.90;85.30;;;;;;5011143;28;20482;-73
2022/05/04 12:48:43;;;;;;;6.78;3.38;;;21.20;86.90;;;;;;5011485;28;20612;-74
2022/05/04 12:51:11;;;;;;;6.65;3.70;;;21.40;84.60;;;;;;5014778;28;20463;-74
2022/05/04 12:53:40;;;;;;;6.43;4.05;;;21.60;86.70;;;;;;5014236;28;20076;-74
2022/05/04 12:58:52;;;;;;;5.97;3.92;;;21.90;87.20;;;;;;5016044;28;20490;-74
2022/05/04 13:01:23;;;;;;;7.05;3.75;;;22.10;84.80;;;;;;5030599;28;20029;-75
2022/05/04 13:03:50;;;;;;;4.53;3.50;;;22.30;79.20;;;;;;5014645;28;20132;-74
2022/05/04 13:06:19;;;;;;;5.80;3.47;;;22.50;78.50;;;;;;5014478;28;20482;-74
2022/05/04 13:08:48;;;;;;;3.80;3.35;;;22.70;74.30;;;;;;5014487;28;20077;-74
2022/05/04 13:11:14;;;;;;;4.63;3.63;;;22.80;74.90;;;;;;5014437;28;20030;-73
2022/05/04 13:13:40;;;;;;;5.28;3.60;;;23.10;74.60;;;;;;5013793;28;20030;-74
2022/05/04 13:16:06;;;;;;;4.65;3.22;;;23.40;75.10;;;;;;5014328;28;20025;-74
2022/05/04 13:18:31;;;;;;;9.20;3.20;;;23.60;71.20;;;;;;5013752;28;20026;-74
2022/05/04 13:20:57;;;;;;;4.70;2.95;;;24.00;71.50;;;;;;5018474;28;20490;-74
2022/05/04 13:23:23;;;;;;;3.25;2.85;;;24.30;65.00;;;;;;5017122;28;20033;-74
2022/05/04 13:25:48;;;;;;;5.97;3.03;;;24.80;60.70;;;;;;5017478;28;20481;-74